Maizeville, Pennsylvania
Current Conditions -  °F | °C
As of 9:35 AM on Friday 28 Nov 2014 (Local Time) from KHZL Reporting Station
Scattered Clouds Scattered Clouds  
Wind Chill: 19°   Ceiling: Unl
Heat Index: 28°   Visibility: 10mi
Dew Point: 16°   Wind: 10mph
Humidity: 59%   Direction: 300°WNW
Pressure: 30.18"   Gusts: NA
Location:  40.8017°N, 76.2096°W
Report Text: KHZL 281435Z AUTO 30009KT 10SM SCT041 SCT048 M02/M09 A3018 RMK AO2
Loading
Personal Weather Stations






























Interactive Weather Map New forecast layout! Learn more

10-Day Weather Forecast

Advertisements
Track Severe Weather on mobile